Flight Track Log - Related Links

Times and Time Zones

All times are in EDT time to prevent confusion due to time zone crossing. See the N504HC flight status page for this flight to view local times or setup timezone preferences in your user account.

Time Position Orientation Groundspeed Altitude Reporting Facility
EDT Latitude Longitude Course Direction KTS MPH feet Rate Location/Type
Wed 03:23:58 PM 42.1236 -76.9361 235° Southwest 114 131 3,400  Level New York Center
Wed 03:24:50 PM 42.1094 -76.9639 230° Southwest 93 107 4,800 1,554 Climbing Cleveland Center
Wed 03:25:50 PM 42.0894 -76.9958 230° Southwest 93 107 6,300 1,450 Climbing Cleveland Center
Wed 03:26:50 PM 42.0678 -77.0306 235° Southwest 112 129 7,700 1,250 Climbing Cleveland Center
Wed 03:27:50 PM 42.0500 -77.0653 236° Southwest 117 135 8,800 1,250 Climbing Cleveland Center
Wed 03:28:50 PM 42.0244 -77.1169 229° Southwest 149 171 10,200 1,150 Climbing Cleveland Center
Wed 03:29:50 PM 41.9925 -77.1661 231° Southwest 174 200 11,100 850 Climbing Cleveland Center
Wed 03:30:50 PM 41.9608 -77.2181 233° Southwest 188 216 11,900 500 Climbing Cleveland Center
Wed 03:31:50 PM 41.9331 -77.2669 231° Southwest 188 216 12,100 100 Climbing Cleveland Center
Wed 03:32:50 PM 41.8953 -77.3303 232° Southwest 194 223 12,100 -50 Level Cleveland Center
Wed 03:33:50 PM 41.8594 -77.3908 233° Southwest 207 238 12,000 -50 Descending Cleveland Center
Wed 03:34:50 PM 41.8236 -77.4539 230° Southwest 212 244 12,000  Level Cleveland Center
Wed 03:35:50 PM 41.7817 -77.5200 230° Southwest 212 244 12,000  Level Cleveland Center
Wed 03:36:50 PM 41.7436 -77.5803 242° Southwest 212 244 12,000  Level Cleveland Center
Wed 03:37:50 PM 41.7161 -77.6483 242° Southwest 212 244 12,000  Level Cleveland Center
Wed 03:38:50 PM 41.6886 -77.7161 245° Southwest 212 244 12,000  Level Cleveland Center
Wed 03:39:50 PM 41.6653 -77.7839 242° Southwest 212 244 12,000  Level Cleveland Center
Wed 03:40:50 PM 41.6397 -77.8489 241° Southwest 207 238 12,000  Level Cleveland Center
Wed 03:41:50 PM 41.6122 -77.9142 245° Southwest 207 238 12,000  Level Cleveland Center
Wed 03:42:50 PM 41.5886 -77.9817 242° Southwest 207 238 12,000  Level Cleveland Center
Wed 03:43:50 PM 41.5631 -78.0467 241° Southwest 207 238 12,000  Level Cleveland Center
Wed 03:44:50 PM 41.5353 -78.1142 242° Southwest 207 238 12,000  Level Cleveland Center
Wed 03:45:50 PM 41.5094 -78.1789 243° Southwest 207 238 12,000  Level Cleveland Center
Wed 03:46:50 PM 41.4839 -78.2464 244° Southwest 207 238 12,000  Level Cleveland Center
Wed 03:47:50 PM 41.4622 -78.3056 240° Southwest 207 238 12,000  Level Cleveland Center
Wed 03:48:50 PM 41.4342 -78.3703 243° Southwest 207 238 12,000  Level Cleveland Center
Wed 03:49:50 PM 41.4083 -78.4375 242° Southwest 207 238 12,000  Level Cleveland Center
Wed 03:50:50 PM 41.3825 -78.5019 244° Southwest 207 238 12,000  Level Cleveland Center
Wed 03:51:50 PM 41.3567 -78.5719 241° Southwest 207 238 12,000  Level Cleveland Center
Wed 03:52:50 PM 41.3286 -78.6392 242° Southwest 207 238 12,000  Level Cleveland Center
Wed 03:53:50 PM 41.3006 -78.7092 242° Southwest 207 238 12,000  Level Cleveland Center
Wed 03:54:50 PM 41.2744 -78.7733 244° Southwest 207 238 12,000  Level Cleveland Center
Wed 03:55:50 PM 41.2483 -78.8433 241° Southwest 207 238 12,000  Level Cleveland Center
Wed 03:56:50 PM 41.2183 -78.9158 241° Southwest 207 238 12,000  Level Cleveland Center
Wed 03:57:50 PM 41.1942 -78.9744 242° Southwest 207 238 12,000  Level Cleveland Center
Wed 03:58:50 PM 41.1639 -79.0497 242° Southwest 207 238 12,000  Level Cleveland Center
Wed 03:59:50 PM 41.1356 -79.1192 243° Southwest 207 238 12,000  Level Cleveland Center
Wed 04:00:50 PM 41.1094 -79.1886 240° Southwest 207 238 12,000  Level Cleveland Center
Wed 04:01:50 PM 41.0808 -79.2553 242° Southwest 207 238 12,000 50 Level Cleveland Center
Wed 04:02:50 PM 41.0525 -79.3247 243° Southwest 207 238 12,100 -300 Climbing Cleveland Center
Wed 04:03:50 PM 41.0242 -79.3969 240° Southwest 213 245 11,400 -700 Descending Cleveland Center
Wed 04:04:50 PM 40.9914 -79.4717 243° Southwest 224 258 10,700 -700 Descending Cleveland Center
Wed 04:05:50 PM 40.9631 -79.5464 242° Southwest 229 264 10,000 -650 Descending Cleveland Center
Wed 04:06:50 PM 40.9325 -79.6211 241° Southwest 229 264 9,400 -650 Descending Cleveland Center
Wed 04:07:50 PM 40.8997 -79.6986 206° Southwest 234 269 8,700 -650 Descending Cleveland Center
Wed 04:08:50 PM 40.8333 -79.7406 200° South 239 275 8,100 -350 Descending Cleveland Center
Wed 04:09:50 PM 40.7689 -79.7717 202° Southwest 250 288 8,000 -600 Descending Cleveland Center
Wed 04:10:50 PM 40.7003 -79.8081 215° Southwest 255 293 6,900 -1,000 Descending Cleveland Center
Wed 04:11:50 PM 40.6464 -79.8581 212° Southwest 255 293 6,000 -529 Descending Cleveland Center
Wed 04:12:32 PM 40.6125 -79.8864 216° Southwest 220 253 6,000 -741 Level FAA TRACON SMA TRACON (SMA)
Wed 04:13:11 PM 40.5794 -79.9181 216° Southwest 212 244 5,000 -1,425 Descending FAA TRACON SMA TRACON (SMA)
Wed 04:13:52 PM 40.5500 -79.9461 216° Southwest 212 244 4,100 -741 Descending FAA TRACON SMA TRACON (SMA)
Wed 04:14:32 PM 40.5194 -79.9756 216° Southwest 195 224 4,000 -75 Descending FAA TRACON SMA TRACON (SMA)
Wed 04:15:12 PM 40.4894 -80.0039 216° Southwest 190 219 4,000 -300 Level FAA TRACON SMA TRACON (SMA)
Wed 04:15:52 PM 40.4636 -80.0286 216° Southwest 182 209 3,600 -750 Descending FAA TRACON SMA TRACON (SMA)
Wed 04:16:32 PM 40.4350 -80.0556 235° Southwest 181 208 3,000 -450 Descending FAA TRACON SMA TRACON (SMA)
Wed 04:17:12 PM 40.4203 -80.0836 278° West 147 169 3,000  Level FAA TRACON SMA TRACON (SMA)
Wed 04:17:51 PM 40.4239 -80.1156 290° West 125 144 3,000 -225 Level FAA TRACON SMA TRACON (SMA)
Wed 04:18:32 PM 40.4319 -80.1453 317° Northwest 125 144 2,700 -593 Descending FAA TRACON SMA TRACON (SMA)
Wed 04:19:12 PM 40.4481 -80.1653 316° Northwest 115 132 2,200 -750 Descending FAA TRACON SMA TRACON (SMA)
Wed 04:19:52 PM 40.4617 -80.1825 317° Northwest 109 125 1,700 -684 Descending FAA TRACON SMA TRACON (SMA)
Wed 04:20:31 PM 40.4756 -80.1997 318° Northwest 101 116 1,300 -300 Descending FAA TRACON SMA TRACON (SMA)
Wed 04:21:12 PM 40.4789 -80.2036 318° Northwest 99 114 1,300  Level FAA TRACON SMA TRACON (SMA)

Login

Don't have an account? Register now (free) for customized features, flight alerts, and more!